Time;durP1;ratioP1;P1;durP2;ratioP2;P2;SDS_P1;SDS_P2;PMS_P1;PMS_P2;Temp;Humidity;BMP_temperature;BMP_pressure;BME280_temperature;BME280_humidity;BME280_pressure;Samples;Min_cycle;Max_cycle;Signal;HPM_P1;HPM_P2
2023/10/28 00:00:29;;;;;;;14.38;7.32;;;10.40;99.90;;;;;;4983397;28;20064;-76
2023/10/28 00:02:56;;;;;;;15.80;7.22;;;10.50;99.90;;;;;;5001645;28;20115;-76
2023/10/28 00:05:22;;;;;;;13.73;7.97;;;10.40;99.90;;;;;;5016901;28;20108;-76
2023/10/28 00:07:47;;;;;;;20.73;8.57;;;10.40;99.90;;;;;;5000111;28;20128;-76
2023/10/28 00:10:13;;;;;;;18.33;7.68;;;10.50;99.90;;;;;;5002118;28;20034;-77
2023/10/28 00:12:39;;;;;;;16.90;7.93;;;10.50;99.90;;;;;;5001372;28;20292;-77
2023/10/28 00:15:06;;;;;;;22.58;9.27;;;10.50;99.90;;;;;;5000949;28;20052;-77
2023/10/28 00:17:31;;;;;;;22.65;10.25;;;10.50;99.90;;;;;;5001394;28;20045;-76
2023/10/28 00:19:57;;;;;;;18.17;10.73;;;10.50;99.90;;;;;;5000170;28;20046;-76
2023/10/28 00:22:23;;;;;;;17.95;7.78;;;10.50;99.90;;;;;;5002377;28;20046;-76
2023/10/28 00:24:49;;;;;;;15.70;9.73;;;10.50;99.90;;;;;;5002038;28;20515;-76
2023/10/28 00:27:15;;;;;;;16.33;9.50;;;10.50;99.90;;;;;;4984327;28;20056;-76
2023/10/28 00:29:41;;;;;;;20.48;8.70;;;10.50;99.90;;;;;;5001050;28;20042;-77
2023/10/28 00:32:06;;;;;;;18.80;7.80;;;10.50;99.90;;;;;;5000079;28;20497;-76
2023/10/28 00:34:32;;;;;;;20.25;9.98;;;10.50;99.90;;;;;;5001479;28;20034;-76
2023/10/28 00:36:59;;;;;;;18.85;9.15;;;10.50;99.90;;;;;;5000974;28;20046;-76
2023/10/28 00:39:24;;;;;;;21.23;9.95;;;10.50;99.90;;;;;;4984604;28;20076;-76
2023/10/28 00:41:50;;;;;;;25.23;10.90;;;10.40;99.90;;;;;;5000174;28;20045;-76
2023/10/28 00:44:16;;;;;;;17.45;8.50;;;10.40;99.90;;;;;;5000990;28;20050;-76
2023/10/28 00:46:42;;;;;;;23.67;10.48;;;10.40;99.90;;;;;;5000343;28;20056;-76
2023/10/28 00:49:09;;;;;;;20.10;10.23;;;10.40;99.90;;;;;;5001550;28;20046;-76
2023/10/28 00:51:35;;;;;;;20.85;10.15;;;10.40;99.90;;;;;;5001799;28;20073;-76
2023/10/28 00:54:01;;;;;;;23.85;10.23;;;10.40;99.90;;;;;;5002386;28;20066;-76
2023/10/28 00:56:28;;;;;;;25.50;10.93;;;10.40;99.90;;;;;;5000128;28;20407;-76
2023/10/28 00:58:53;;;;;;;28.20;11.40;;;10.30;99.90;;;;;;5000949;28;20153;-77
2023/10/28 01:01:19;;;;;;;24.77;10.27;;;10.30;99.90;;;;;;5000156;28;20121;-76
2023/10/28 01:03:46;;;;;;;19.73;10.05;;;10.30;99.90;;;;;;5001705;28;20045;-76
2023/10/28 01:06:12;;;;;;;22.25;10.10;;;10.40;99.90;;;;;;4999649;28;20050;-76
2023/10/28 01:08:39;;;;;;;21.65;10.63;;;10.30;99.90;;;;;;4989153;28;20050;-76
2023/10/28 01:11:04;;;;;;;22.73;10.48;;;10.30;99.90;;;;;;5000303;28;20121;-76
2023/10/28 01:13:30;;;;;;;21.05;9.48;;;10.30;99.90;;;;;;5000375;28;20736;-76
2023/10/28 01:15:59;;;;;;;19.83;11.77;;;10.30;99.90;;;;;;5000005;28;20060;-76
2023/10/28 01:18:25;;;;;;;22.15;11.05;;;10.30;99.90;;;;;;5000826;28;20053;-76
2023/10/28 01:20:51;;;;;;;21.60;11.07;;;10.30;99.90;;;;;;5000770;28;20050;-77
2023/10/28 01:23:16;;;;;;;20.17;9.40;;;10.30;99.90;;;;;;4999830;28;20050;-77
2023/10/28 01:25:42;;;;;;;19.55;12.00;;;10.30;99.90;;;;;;5000486;28;20041;-77
2023/10/28 01:28:08;;;;;;;22.95;10.45;;;10.20;99.90;;;;;;5000220;28;20081;-77
2023/10/28 01:30:34;;;;;;;21.75;12.07;;;10.20;99.90;;;;;;4999656;28;20084;-77
2023/10/28 01:32:59;;;;;;;26.40;11.48;;;10.20;99.90;;;;;;5003480;28;20050;-76
2023/10/28 01:35:25;;;;;;;22.05;10.50;;;10.20;99.90;;;;;;5005085;28;20425;-76
2023/10/28 01:37:51;;;;;;;22.85;10.90;;;10.20;99.90;;;;;;5004726;28;20042;-76
2023/10/28 01:40:17;;;;;;;21.02;12.48;;;10.20;99.90;;;;;;5003609;28;20461;-76
2023/10/28 01:42:45;;;;;;;18.98;10.88;;;10.20;99.90;;;;;;5003445;28;20077;-76
2023/10/28 01:45:11;;;;;;;23.88;10.85;;;10.20;99.90;;;;;;5003489;28;20519;-76
2023/10/28 01:47:39;;;;;;;21.10;9.55;;;10.20;99.90;;;;;;5004516;28;20781;-76
2023/10/28 01:50:08;;;;;;;24.02;12.32;;;10.20;99.90;;;;;;5002941;28;20056;-76
2023/10/28 01:52:34;;;;;;;19.75;9.98;;;10.10;99.90;;;;;;5003653;28;20057;-76
2023/10/28 01:55:00;;;;;;;20.85;10.73;;;10.20;99.90;;;;;;5003664;28;20049;-76
2023/10/28 01:57:25;;;;;;;20.02;9.15;;;10.20;99.90;;;;;;5003362;28;20042;-76
2023/10/28 01:59:52;;;;;;;21.80;11.52;;;10.10;99.90;;;;;;5002544;28;20099;-76
2023/10/28 02:02:18;;;;;;;20.52;10.27;;;10.10;99.90;;;;;;5003881;28;20076;-77
2023/10/28 02:04:43;;;;;;;19.90;10.95;;;10.10;99.90;;;;;;5003637;28;20489;-76
2023/10/28 02:07:09;;;;;;;21.20;9.30;;;10.10;99.90;;;;;;4998435;28;20472;-76
2023/10/28 02:09:35;;;;;;;22.48;10.57;;;10.10;99.90;;;;;;4983574;28;20153;-76
2023/10/28 02:12:04;;;;;;;20.10;9.15;;;10.10;99.90;;;;;;4985256;28;20034;-76
2023/10/28 02:14:30;;;;;;;21.92;10.65;;;10.10;99.90;;;;;;4983355;28;20096;-76
2023/10/28 02:16:56;;;;;;;18.40;10.43;;;10.10;99.90;;;;;;4984255;28;20511;-76
2023/10/28 02:19:22;;;;;;;21.90;9.23;;;10.10;99.90;;;;;;4984903;28;20038;-76
2023/10/28 02:21:50;;;;;;;19.23;12.18;;;10.10;99.90;;;;;;4978668;28;20049;-76
2023/10/28 02:24:19;;;;;;;17.20;9.10;;;10.10;99.90;;;;;;5004078;28;20455;-76
2023/10/28 02:26:45;;;;;;;15.15;9.13;;;10.10;99.90;;;;;;5003386;28;20050;-76
2023/10/28 02:29:11;;;;;;;17.83;9.45;;;10.10;99.90;;;;;;5001508;28;20053;-76
2023/10/28 02:31:37;;;;;;;19.17;10.57;;;10.10;99.90;;;;;;5004363;28;20049;-76
2023/10/28 02:34:06;;;;;;;20.05;11.40;;;10.00;99.90;;;;;;4986440;28;20497;-76
2023/10/28 02:36:32;;;;;;;18.00;9.98;;;10.00;99.90;;;;;;5004293;28;20132;-76
2023/10/28 02:38:58;;;;;;;15.80;10.35;;;10.00;99.90;;;;;;5004009;28;20125;-76
2023/10/28 02:41:23;;;;;;;18.80;7.13;;;10.00;99.90;;;;;;5003323;28;20046;-76
2023/10/28 02:43:49;;;;;;;20.77;9.60;;;10.00;99.90;;;;;;5001023;28;20050;-76
2023/10/28 02:46:25;;;;;;;17.55;8.18;;;9.90;99.90;;;;;;5002573;28;20693;-76
2023/10/28 02:48:51;;;;;;;21.75;9.30;;;9.90;99.90;;;;;;5001552;28;20067;-76
2023/10/28 02:51:17;;;;;;;21.02;9.43;;;9.90;99.90;;;;;;5002394;28;20413;-76
2023/10/28 02:53:43;;;;;;;20.40;9.85;;;9.90;99.90;;;;;;5001805;28;20046;-76
2023/10/28 02:56:09;;;;;;;15.65;7.95;;;9.90;99.90;;;;;;5002936;28;20492;-75
2023/10/28 02:58:35;;;;;;;18.15;9.13;;;9.80;99.90;;;;;;5003040;28;20052;-75
2023/10/28 03:01:11;;;;;;;18.33;8.15;;;9.80;99.90;;;;;;5003927;28;20125;-75
2023/10/28 03:03:39;;;;;;;14.52;7.63;;;9.70;99.90;;;;;;5001849;28;20139;-76
2023/10/28 03:06:04;;;;;;;13.10;8.55;;;9.70;99.90;;;;;;5001247;28;20053;-76
2023/10/28 03:08:30;;;;;;;13.90;7.57;;;9.70;99.90;;;;;;5002804;28;20062;-76
2023/10/28 03:10:56;;;;;;;18.23;7.47;;;9.70;99.90;;;;;;5001805;28;20398;-76
2023/10/28 03:13:21;;;;;;;17.98;8.05;;;9.60;99.90;;;;;;5001993;28;20044;-76
2023/10/28 03:15:48;;;;;;;15.05;7.32;;;9.60;99.90;;;;;;5001124;28;20603;-76
2023/10/28 03:18:14;;;;;;;16.77;8.38;;;9.60;99.90;;;;;;5001745;28;20129;-76
2023/10/28 03:20:39;;;;;;;8.57;5.85;;;9.60;99.90;;;;;;5001126;28;20042;-76
2023/10/28 03:23:05;;;;;;;16.52;7.07;;;9.50;99.90;;;;;;5002251;28;20046;-76
2023/10/28 03:25:31;;;;;;;14.32;7.00;;;9.50;99.90;;;;;;5002965;28;20100;-76
2023/10/28 03:28:00;;;;;;;13.82;7.55;;;9.50;99.90;;;;;;5003264;28;20606;-76
2023/10/28 03:30:26;;;;;;;9.30;6.95;;;9.50;99.90;;;;;;5002044;28;20088;-76
2023/10/28 03:32:52;;;;;;;14.52;5.93;;;9.50;99.90;;;;;;5001475;28;20037;-76
2023/10/28 03:35:17;;;;;;;14.20;7.22;;;9.40;99.90;;;;;;5001567;28;20045;-76
2023/10/28 03:37:44;;;;;;;10.63;6.45;;;9.40;99.90;;;;;;5001487;28;20042;-76
2023/10/28 03:40:13;;;;;;;11.68;5.85;;;9.40;99.90;;;;;;5001650;28;20050;-76
2023/10/28 03:42:39;;;;;;;14.88;6.18;;;9.40;99.90;;;;;;5001071;28;20042;-76
2023/10/28 03:45:08;;;;;;;7.90;5.15;;;9.40;99.90;;;;;;5000282;28;20438;-76
2023/10/28 03:47:34;;;;;;;10.52;5.43;;;9.30;99.90;;;;;;5002468;28;20046;-76
2023/10/28 03:50:00;;;;;;;10.30;5.97;;;9.30;99.90;;;;;;5002524;28;20099;-75
2023/10/28 03:52:26;;;;;;;19.90;6.95;;;9.30;99.90;;;;;;4988344;28;20408;-76
2023/10/28 03:54:51;;;;;;;12.32;6.15;;;9.30;99.90;;;;;;5020066;28;20056;-76
2023/10/28 03:57:17;;;;;;;16.60;6.28;;;9.20;99.90;;;;;;5015374;28;20042;-76
2023/10/28 03:59:45;;;;;;;11.25;5.80;;;9.20;99.90;;;;;;5005399;28;20029;-76
2023/10/28 04:02:11;;;;;;;9.57;5.55;;;9.20;99.90;;;;;;5009798;28;20081;-76
2023/10/28 04:04:36;;;;;;;9.55;5.57;;;9.20;99.90;;;;;;5001826;28;20445;-76
2023/10/28 04:07:02;;;;;;;9.73;5.28;;;9.20;99.90;;;;;;5001730;28;20041;-76
2023/10/28 04:09:28;;;;;;;11.25;5.65;;;9.20;99.90;;;;;;5001722;28;20092;-75
2023/10/28 04:11:54;;;;;;;6.03;4.45;;;9.20;99.90;;;;;;5001674;28;20049;-75
2023/10/28 04:14:19;;;;;;;8.63;4.90;;;9.10;99.90;;;;;;5000767;28;20038;-76
2023/10/28 04:16:45;;;;;;;9.63;5.38;;;9.10;99.90;;;;;;5001240;28;20046;-75
2023/10/28 04:19:11;;;;;;;12.68;6.07;;;9.00;99.90;;;;;;5001577;28;20505;-75
2023/10/28 04:21:37;;;;;;;9.50;4.55;;;9.10;99.90;;;;;;5002067;28;20412;-76
2023/10/28 04:24:03;;;;;;;12.73;4.57;;;9.00;99.90;;;;;;5002506;28;20046;-76
2023/10/28 04:26:30;;;;;;;9.90;4.63;;;9.00;99.90;;;;;;5001183;28;20084;-75
2023/10/28 04:28:59;;;;;;;9.77;5.40;;;9.00;99.90;;;;;;5000067;28;20095;-75
2023/10/28 04:31:29;;;;;;;15.55;6.03;;;9.00;99.90;;;;;;5001216;28;20049;-75
2023/10/28 04:33:55;;;;;;;9.30;4.68;;;9.00;99.90;;;;;;5002360;28;20188;-76
2023/10/28 04:36:21;;;;;;;8.55;5.38;;;9.00;99.90;;;;;;5001157;28;20088;-75
2023/10/28 04:38:47;;;;;;;12.38;5.18;;;9.00;99.90;;;;;;4999113;28;20046;-76
2023/10/28 04:41:13;;;;;;;9.25;5.07;;;9.00;99.90;;;;;;5000299;28;20060;-76
2023/10/28 04:43:39;;;;;;;12.18;4.28;;;9.00;99.90;;;;;;5000182;28;20045;-76
2023/10/28 04:46:05;;;;;;;8.98;4.60;;;9.00;99.90;;;;;;5001321;28;20089;-76
2023/10/28 04:48:32;;;;;;;7.75;4.70;;;9.00;99.90;;;;;;5001380;28;20129;-75
2023/10/28 04:50:57;;;;;;;8.32;3.53;;;8.90;99.90;;;;;;5000690;28;20046;-74
2023/10/28 04:53:23;;;;;;;11.55;4.70;;;8.90;99.90;;;;;;5001555;28;20551;-74
2023/10/28 04:55:49;;;;;;;9.02;4.55;;;8.90;99.90;;;;;;5001259;28;20133;-78
2023/10/28 04:58:15;;;;;;;9.13;5.03;;;8.90;99.90;;;;;;4991369;28;20180;-74
2023/10/28 05:00:41;;;;;;;7.10;3.60;;;8.90;99.90;;;;;;4991300;28;20035;-74
2023/10/28 05:03:07;;;;;;;8.43;5.03;;;8.90;99.90;;;;;;4994190;28;20141;-74
2023/10/28 05:05:33;;;;;;;7.50;5.65;;;8.90;99.90;;;;;;5001409;28;20124;-74
2023/10/28 05:07:58;;;;;;;7.20;4.43;;;8.90;99.90;;;;;;5003411;28;20042;-74
2023/10/28 05:10:24;;;;;;;8.30;4.30;;;8.90;99.90;;;;;;5005344;28;20119;-74
2023/10/28 05:12:50;;;;;;;10.93;4.63;;;8.90;99.90;;;;;;5004255;28;20400;-73
2023/10/28 05:15:15;;;;;;;11.35;5.70;;;8.90;99.90;;;;;;5004672;28;20071;-74
2023/10/28 05:17:41;;;;;;;7.65;3.83;;;8.90;99.90;;;;;;5005370;28;20045;-74
2023/10/28 05:20:08;;;;;;;7.50;4.20;;;8.90;99.90;;;;;;5003916;28;20057;-74
2023/10/28 05:22:35;;;;;;;7.97;4.95;;;8.90;99.90;;;;;;5004135;28;20083;-74
2023/10/28 05:25:03;;;;;;;13.23;5.28;;;8.80;99.90;;;;;;5004655;28;20046;-74
2023/10/28 05:27:29;;;;;;;11.68;4.60;;;8.80;99.90;;;;;;5004339;28;20101;-74
2023/10/28 05:29:55;;;;;;;6.63;4.22;;;8.80;99.90;;;;;;5003013;28;20647;-74
2023/10/28 05:32:20;;;;;;;7.03;4.72;;;8.80;99.90;;;;;;5005137;28;20050;-74
2023/10/28 05:34:46;;;;;;;6.50;4.78;;;8.80;99.90;;;;;;5003375;28;20049;-74
2023/10/28 05:37:11;;;;;;;7.72;5.38;;;8.80;99.90;;;;;;4999593;28;20671;-74
2023/10/28 05:39:40;;;;;;;7.88;3.95;;;8.70;99.90;;;;;;4992435;28;20121;-74
2023/10/28 05:42:06;;;;;;;11.38;5.95;;;8.80;99.90;;;;;;4984091;28;20050;-74
2023/10/28 05:44:32;;;;;;;7.80;4.10;;;8.70;99.90;;;;;;4983257;28;20042;-74
2023/10/28 05:46:59;;;;;;;7.43;4.57;;;8.70;99.90;;;;;;4986932;28;20684;-74
2023/10/28 05:49:25;;;;;;;13.95;4.78;;;8.70;99.90;;;;;;4985125;28;20105;-74
2023/10/28 05:51:51;;;;;;;9.75;5.18;;;8.70;99.90;;;;;;4990719;28;20076;-74
2023/10/28 05:54:16;;;;;;;6.03;4.50;;;8.70;99.90;;;;;;5003660;28;20045;-74
2023/10/28 05:56:42;;;;;;;8.15;3.70;;;8.70;99.90;;;;;;5001333;28;20132;-74
2023/10/28 05:59:08;;;;;;;9.15;5.22;;;8.70;99.90;;;;;;4999843;28;20396;-74
2023/10/28 06:01:35;;;;;;;10.02;4.90;;;8.70;99.90;;;;;;5003043;28;20053;-74
2023/10/28 06:04:01;;;;;;;16.00;5.00;;;8.80;99.90;;;;;;5003606;28;20096;-74
2023/10/28 06:06:27;;;;;;;10.30;4.97;;;8.80;99.90;;;;;;5004032;28;20073;-73
2023/10/28 06:09:00;;;;;;;10.27;5.07;;;8.80;99.90;;;;;;5004714;28;20038;-74
2023/10/28 06:11:25;;;;;;;;;;;8.80;99.90;;;;;;5003275;28;20045;-74
2023/10/28 06:13:51;;;;;;;7.70;4.40;;;8.90;99.90;;;;;;5002033;28;19928;-74
2023/10/28 06:16:19;;;;;;;12.70;4.30;;;8.90;99.90;;;;;;5004234;28;20038;-74
2023/10/28 06:18:45;;;;;;;9.73;5.35;;;8.90;99.90;;;;;;5002096;28;20054;-74
2023/10/28 06:21:11;;;;;;;9.27;6.05;;;9.00;99.90;;;;;;5004225;28;20046;-74
2023/10/28 06:23:39;;;;;;;11.85;5.93;;;9.00;99.90;;;;;;5003706;28;20447;-74
2023/10/28 06:26:05;;;;;;;7.60;4.65;;;9.00;99.90;;;;;;5001842;28;20073;-74
2023/10/28 06:28:30;;;;;;;12.15;5.18;;;9.00;99.90;;;;;;4998275;28;20485;-74
2023/10/28 06:30:58;;;;;;;10.80;4.97;;;9.10;99.90;;;;;;4992311;28;20096;-74
2023/10/28 06:33:24;;;;;;;8.23;5.40;;;9.10;99.90;;;;;;4984458;28;20672;-75
2023/10/28 06:35:50;;;;;;;9.18;4.75;;;9.10;99.90;;;;;;5002769;28;20509;-75
2023/10/28 06:38:17;;;;;;;11.73;6.90;;;9.10;99.90;;;;;;5003362;28;20046;-75
2023/10/28 06:40:43;;;;;;;9.65;5.55;;;9.10;99.90;;;;;;5001773;28;20054;-74
2023/10/28 06:43:08;;;;;;;10.80;5.30;;;9.20;99.90;;;;;;5001119;28;20054;-75
2023/10/28 06:45:34;;;;;;;13.07;6.03;;;9.20;99.90;;;;;;5001859;28;20050;-75
2023/10/28 06:48:01;;;;;;;10.20;5.60;;;9.20;99.90;;;;;;5003908;28;20103;-75
2023/10/28 06:50:27;;;;;;;11.98;5.28;;;9.20;99.90;;;;;;5000972;28;20058;-76
2023/10/28 06:52:52;;;;;;;12.95;5.18;;;9.20;99.90;;;;;;5003417;28;20042;-73
2023/10/28 06:55:18;;;;;;;16.30;6.97;;;9.30;99.90;;;;;;4993877;28;20042;-74
2023/10/28 06:57:44;;;;;;;14.07;5.47;;;9.30;99.90;;;;;;4993658;28;20424;-75
2023/10/28 07:00:13;;;;;;;10.40;5.93;;;9.30;99.90;;;;;;4988783;28;20515;-75
2023/10/28 07:02:43;;;;;;;10.63;5.38;;;9.40;99.90;;;;;;4992627;28;20049;-74
2023/10/28 07:05:10;;;;;;;11.65;5.47;;;9.40;99.90;;;;;;4987873;28;20631;-75
2023/10/28 07:07:36;;;;;;;10.85;5.00;;;9.40;99.90;;;;;;4999269;28;20359;-75
2023/10/28 07:10:02;;;;;;;7.75;4.95;;;9.50;99.90;;;;;;4997767;28;20795;-74
2023/10/28 07:12:28;;;;;;;10.05;5.35;;;9.50;99.90;;;;;;4990624;28;20183;-75
2023/10/28 07:14:54;;;;;;;8.45;5.40;;;9.50;99.90;;;;;;4989406;28;20065;-74
2023/10/28 07:17:22;;;;;;;10.65;6.05;;;9.50;99.90;;;;;;4986112;28;20129;-74
2023/10/28 07:19:48;;;;;;;9.98;4.53;;;9.60;99.90;;;;;;4991896;28;20397;-74
2023/10/28 07:22:16;;;;;;;11.88;4.90;;;9.60;99.90;;;;;;4992430;28;20481;-75
2023/10/28 07:24:42;;;;;;;11.98;5.40;;;9.70;99.90;;;;;;4990844;28;20405;-75
2023/10/28 07:27:08;;;;;;;10.55;4.38;;;9.70;99.90;;;;;;4990742;28;20053;-75
2023/10/28 07:29:34;;;;;;;12.50;6.38;;;9.80;99.90;;;;;;5001783;28;20042;-75
2023/10/28 07:32:00;;;;;;;16.08;5.68;;;9.80;99.90;;;;;;4986215;28;20052;-74
2023/10/28 07:34:25;;;;;;;11.20;4.05;;;9.80;99.90;;;;;;5002481;28;20076;-74
2023/10/28 07:36:51;;;;;;;9.13;5.32;;;9.80;99.90;;;;;;5001956;28;20085;-75
2023/10/28 07:39:17;;;;;;;9.98;4.65;;;9.80;99.90;;;;;;5000867;28;20084;-75
2023/10/28 07:41:42;;;;;;;12.00;3.83;;;9.90;99.90;;;;;;4985230;28;20046;-74
2023/10/28 07:44:08;;;;;;;14.10;4.72;;;9.90;99.90;;;;;;4983761;28;20393;-75
2023/10/28 07:46:33;;;;;;;9.05;4.53;;;10.00;99.90;;;;;;4999096;28;20052;-75
2023/10/28 07:48:59;;;;;;;7.00;3.58;;;10.00;99.90;;;;;;4993048;28;20097;-74
2023/10/28 07:51:26;;;;;;;11.35;4.57;;;10.10;99.90;;;;;;4992259;28;20053;-75
2023/10/28 07:53:52;;;;;;;10.60;5.15;;;10.10;99.90;;;;;;4982140;28;20088;-73
2023/10/28 07:56:18;;;;;;;8.38;5.00;;;10.20;99.90;;;;;;4981595;28;20105;-74
2023/10/28 07:58:44;;;;;;;5.80;3.20;;;10.10;99.90;;;;;;4982276;28;20442;-74
2023/10/28 08:01:17;;;;;;;11.48;5.03;;;10.20;99.90;;;;;;4982237;28;20077;-74
2023/10/28 08:03:44;;;;;;;5.43;3.25;;;10.20;99.90;;;;;;5015809;28;20677;-74
2023/10/28 08:06:11;;;;;;;9.23;4.07;;;10.30;99.90;;;;;;5000215;28;20042;-74
2023/10/28 08:08:37;;;;;;;9.40;3.97;;;10.30;99.90;;;;;;5001951;28;20092;-74
2023/10/28 08:11:03;;;;;;;7.95;3.10;;;10.30;99.90;;;;;;5000192;28;20049;-76
2023/10/28 08:13:29;;;;;;;6.95;3.45;;;10.30;99.90;;;;;;4997361;28;20127;-74
2023/10/28 08:15:54;;;;;;;10.75;4.15;;;10.40;99.90;;;;;;4989283;28;20066;-74
2023/10/28 08:18:20;;;;;;;7.38;3.55;;;10.30;99.90;;;;;;5000716;28;20599;-74
2023/10/28 08:20:46;;;;;;;8.20;4.30;;;10.40;99.90;;;;;;4992645;28;20489;-74
2023/10/28 08:23:11;;;;;;;10.13;4.10;;;10.30;99.90;;;;;;4995295;28;20042;-74
2023/10/28 08:25:37;;;;;;;11.20;3.80;;;10.40;99.90;;;;;;4983747;28;20100;-74
2023/10/28 08:28:03;;;;;;;5.85;2.83;;;10.40;99.90;;;;;;4992955;28;20038;-74
2023/10/28 08:30:29;;;;;;;8.25;4.10;;;10.30;99.90;;;;;;4989371;28;20054;-74
2023/10/28 08:32:54;;;;;;;6.60;3.47;;;10.30;99.90;;;;;;4994406;28;20188;-74
2023/10/28 08:35:20;;;;;;;5.30;4.10;;;10.30;99.90;;;;;;4993000;28;20471;-74
2023/10/28 08:37:49;;;;;;;4.97;2.95;;;10.30;99.90;;;;;;4994530;28;20056;-73
2023/10/28 08:40:15;;;;;;;7.50;3.45;;;10.30;99.90;;;;;;4979917;28;20636;-74
2023/10/28 08:42:41;;;;;;;8.57;3.40;;;10.30;99.90;;;;;;4989997;28;20050;-73
2023/10/28 08:45:08;;;;;;;8.63;3.90;;;10.40;99.90;;;;;;4989858;28;20141;-74
2023/10/28 08:47:38;;;;;;;7.78;4.00;;;10.40;99.90;;;;;;4991586;28;20050;-74
2023/10/28 08:50:07;;;;;;;6.63;3.95;;;10.40;99.90;;;;;;4993555;28;20121;-74
2023/10/28 08:52:36;;;;;;;6.35;2.50;;;10.40;99.90;;;;;;4992089;28;20159;-75
2023/10/28 08:55:02;;;;;;;8.25;3.05;;;10.40;99.90;;;;;;4990804;28;20042;-74
2023/10/28 08:57:29;;;;;;;7.22;3.78;;;10.40;99.90;;;;;;4998667;28;20535;-74
2023/10/28 08:59:54;;;;;;;6.55;3.70;;;10.50;99.90;;;;;;4999058;28;20104;-74
2023/10/28 09:02:22;;;;;;;10.05;3.97;;;10.40;99.90;;;;;;5000539;28;20073;-75
2023/10/28 09:04:48;;;;;;;5.88;3.35;;;10.50;99.90;;;;;;5001447;28;20092;-75
2023/10/28 09:07:14;;;;;;;6.35;3.17;;;10.50;99.90;;;;;;4983332;28;20461;-73
2023/10/28 09:09:40;;;;;;;6.13;3.85;;;10.50;99.90;;;;;;4996880;28;20129;-73
2023/10/28 09:12:09;;;;;;;9.32;4.28;;;10.50;99.90;;;;;;4992206;28;20154;-75
2023/10/28 09:14:34;;;;;;;7.70;3.58;;;10.50;99.90;;;;;;4999074;28;20044;-75
2023/10/28 09:17:02;;;;;;;10.57;3.42;;;10.50;99.90;;;;;;5001266;28;20053;-75
2023/10/28 09:19:29;;;;;;;7.80;3.08;;;10.50;99.90;;;;;;5001284;28;20049;-75
2023/10/28 09:21:55;;;;;;;7.05;3.08;;;10.60;99.90;;;;;;5000480;28;20061;-74
2023/10/28 09:24:22;;;;;;;7.95;3.28;;;10.60;99.90;;;;;;4995922;28;20041;-73
2023/10/28 09:26:50;;;;;;;3.33;2.47;;;10.60;99.90;;;;;;4989968;28;20126;-74
2023/10/28 09:29:29;;;;;;;9.35;3.80;;;10.70;99.90;;;;;;4995639;28;20034;-75
2023/10/28 09:32:05;;;;;;;7.60;3.25;;;10.70;99.90;;;;;;4983077;28;20432;-73
2023/10/28 09:34:33;;;;;;;7.47;3.20;;;10.80;99.90;;;;;;5000159;28;20081;-73
2023/10/28 09:37:00;;;;;;;7.05;4.05;;;10.80;99.90;;;;;;4998881;28;20061;-73
2023/10/28 09:39:26;;;;;;;7.43;4.13;;;10.80;99.90;;;;;;4999116;28;20042;-73
2023/10/28 09:41:53;;;;;;;6.75;3.67;;;10.80;99.90;;;;;;4993638;28;20072;-74
2023/10/28 09:44:20;;;;;;;6.45;3.22;;;10.90;99.90;;;;;;4990021;28;20092;-73
2023/10/28 09:46:50;;;;;;;4.20;2.58;;;10.90;99.90;;;;;;4992963;28;20093;-73
2023/10/28 09:49:19;;;;;;;6.50;3.25;;;10.90;99.90;;;;;;4984430;28;20525;-73
2023/10/28 09:51:47;;;;;;;5.28;3.13;;;10.90;99.90;;;;;;4990974;28;20400;-73
2023/10/28 09:54:19;;;;;;;4.60;2.50;;;10.90;99.90;;;;;;5000281;28;20050;-74
2023/10/28 09:56:47;;;;;;;4.30;3.03;;;10.90;99.90;;;;;;5002129;28;20322;-73
2023/10/28 09:59:19;;;;;;;5.45;3.10;;;10.90;99.90;;;;;;4991609;28;20034;-73
2023/10/28 10:02:23;;;;;;;6.07;2.95;;;10.90;99.90;;;;;;4972734;28;20095;-74
2023/10/28 10:04:58;;;;;;;3.58;2.20;;;10.90;99.90;;;;;;5000996;28;20076;-74
2023/10/28 10:07:24;;;;;;;4.97;2.50;;;11.00;99.90;;;;;;4997033;28;20096;-75
2023/10/28 10:09:51;;;;;;;6.40;3.17;;;11.00;99.90;;;;;;4981182;28;20672;-73
2023/10/28 10:12:16;;;;;;;6.38;3.15;;;11.00;99.90;;;;;;5000501;28;20049;-73
2023/10/28 10:14:46;;;;;;;7.88;3.78;;;11.00;99.90;;;;;;4984061;28;20046;-74
2023/10/28 10:17:37;;;;;;;4.82;2.60;;;11.00;99.90;;;;;;5001179;28;20033;-73
2023/10/28 10:20:06;;;;;;;6.93;3.90;;;11.00;99.90;;;;;;5001827;28;20085;-72
2023/10/28 10:22:35;;;;;;;5.57;2.88;;;11.00;99.90;;;;;;4994256;28;20057;-73
2023/10/28 10:25:01;;;;;;;3.83;2.42;;;11.00;99.90;;;;;;4996170;28;20053;-73
2023/10/28 10:27:45;;;;;;;5.68;2.72;;;11.00;99.90;;;;;;4999298;28;20091;-73
2023/10/28 10:30:12;;;;;;;11.25;3.28;;;11.00;99.90;;;;;;5001387;28;20064;-72
2023/10/28 10:32:46;;;;;;;4.40;2.42;;;11.10;99.90;;;;;;5000226;28;20038;-73
2023/10/28 10:35:33;;;;;;;4.32;2.53;;;11.10;99.90;;;;;;4988719;28;20121;-73
2023/10/28 10:38:05;;;;;;;5.28;2.50;;;11.20;99.90;;;;;;5000963;28;20547;-73
2023/10/28 10:40:41;;;;;;;7.53;3.28;;;11.20;99.90;;;;;;5001672;28;20400;-73
2023/10/28 10:43:10;;;;;;;7.63;2.50;;;11.20;99.90;;;;;;4999798;28;20524;-73
2023/10/28 10:45:36;;;;;;;9.32;2.90;;;11.20;99.90;;;;;;5001139;28;20334;-73
2023/10/28 10:48:08;;;;;;;13.40;2.50;;;11.20;99.90;;;;;;5000632;28;20042;-73
2023/10/28 10:50:37;;;;;;;5.65;2.25;;;11.20;99.90;;;;;;5000904;28;20064;-75
2023/10/28 10:53:03;;;;;;;4.05;1.80;;;11.30;99.90;;;;;;5001522;28;20042;-73
2023/10/28 10:55:30;;;;;;;4.18;3.45;;;11.30;99.90;;;;;;4991466;28;20046;-81
2023/10/28 10:57:56;;;;;;;5.32;2.47;;;11.30;99.90;;;;;;5001109;28;20050;-75
2023/10/28 11:00:26;;;;;;;3.53;2.45;;;11.30;99.90;;;;;;5002011;28;20046;-76
2023/10/28 11:02:57;;;;;;;5.10;2.40;;;11.30;99.90;;;;;;4992849;28;20105;-75
2023/10/28 11:05:23;;;;;;;9.40;3.22;;;11.40;99.90;;;;;;4994004;28;20045;-75
2023/10/28 11:07:48;;;;;;;3.90;2.17;;;11.40;99.90;;;;;;5001179;28;20602;-76
2023/10/28 11:10:14;;;;;;;3.33;2.42;;;11.40;99.90;;;;;;5000497;28;20113;-75
2023/10/28 11:12:41;;;;;;;4.18;2.00;;;11.40;99.90;;;;;;5000058;28;20049;-75
2023/10/28 11:15:08;;;;;;;4.18;2.40;;;11.40;99.90;;;;;;4999936;28;20054;-75
2023/10/28 11:17:34;;;;;;;4.70;2.30;;;11.40;99.90;;;;;;4998184;28;20124;-75
2023/10/28 11:20:00;;;;;;;4.43;2.53;;;11.40;99.90;;;;;;4984723;28;20125;-75
2023/10/28 11:22:26;;;;;;;9.93;2.88;;;11.40;99.90;;;;;;4999026;28;20054;-76
2023/10/28 11:24:59;;;;;;;9.55;3.50;;;11.40;99.90;;;;;;4993095;28;20069;-75
2023/10/28 11:27:26;;;;;;;27.85;3.15;;;11.40;99.90;;;;;;4995363;28;20081;-74
2023/10/28 11:29:52;;;;;;;5.55;2.63;;;11.40;99.90;;;;;;5000859;28;20121;-75
2023/10/28 11:32:21;;;;;;;4.93;3.00;;;11.40;99.90;;;;;;4999613;28;20046;-75
2023/10/28 11:34:47;;;;;;;5.35;2.67;;;11.40;99.90;;;;;;5000406;28;20050;-74
2023/10/28 11:37:13;;;;;;;6.65;2.35;;;11.40;99.90;;;;;;5000199;28;20049;-75
2023/10/28 11:39:40;;;;;;;4.47;2.45;;;11.50;99.90;;;;;;4999900;28;20408;-74
2023/10/28 11:42:12;;;;;;;5.45;2.50;;;11.50;99.90;;;;;;4999161;28;20185;-74
2023/10/28 11:44:39;;;;;;;5.07;3.03;;;11.50;99.90;;;;;;4999560;28;20281;-75
2023/10/28 11:47:05;;;;;;;5.60;2.88;;;11.50;99.90;;;;;;5000705;28;20046;-74
2023/10/28 11:49:31;;;;;;;8.30;3.38;;;11.60;99.90;;;;;;5000800;28;20422;-74
2023/10/28 11:51:57;;;;;;;5.43;2.38;;;11.60;99.90;;;;;;5001503;28;20042;-75
2023/10/28 11:54:23;;;;;;;5.32;2.72;;;11.60;99.90;;;;;;4999711;28;20042;-74
2023/10/28 11:56:48;;;;;;;5.30;3.15;;;11.70;99.90;;;;;;5000896;28;20037;-75
2023/10/28 11:59:14;;;;;;;7.82;2.53;;;11.70;99.90;;;;;;4992948;28;20405;-75
2023/10/28 12:01:40;;;;;;;6.22;3.67;;;11.70;99.90;;;;;;4993578;28;20378;-74
2023/10/28 12:04:07;;;;;;;7.43;2.53;;;11.70;99.90;;;;;;4999718;28;20049;-75
2023/10/28 12:06:33;;;;;;;5.35;2.83;;;11.70;99.90;;;;;;4982542;28;20069;-75
2023/10/28 12:09:00;;;;;;;4.13;2.28;;;11.70;99.90;;;;;;4999828;28;20045;-75
2023/10/28 12:11:28;;;;;;;5.60;2.60;;;11.70;99.90;;;;;;5001207;28;20065;-75
2023/10/28 12:13:56;;;;;;;5.22;2.50;;;11.70;99.90;;;;;;4999870;28;20046;-75
2023/10/28 12:16:22;;;;;;;7.43;2.20;;;11.80;99.90;;;;;;4991437;28;20053;-76
2023/10/28 12:18:47;;;;;;;6.75;2.38;;;11.80;99.90;;;;;;5002206;28;20528;-76
2023/10/28 12:21:15;;;;;;;7.50;2.60;;;11.80;99.90;;;;;;4999537;28;20077;-74
2023/10/28 12:23:42;;;;;;;7.53;3.03;;;11.90;99.90;;;;;;5001123;28;20045;-75
2023/10/28 12:26:08;;;;;;;8.07;2.47;;;11.90;99.90;;;;;;4998456;28;20489;-76
2023/10/28 12:28:34;;;;;;;6.50;2.45;;;11.90;99.90;;;;;;5002162;28;20041;-76
2023/10/28 12:31:01;;;;;;;3.92;2.80;;;11.90;99.90;;;;;;4997573;28;20041;-75
2023/10/28 12:33:27;;;;;;;4.07;2.40;;;11.90;99.90;;;;;;4999250;28;20045;-75
2023/10/28 12:35:52;;;;;;;2.50;1.88;;;11.90;99.90;;;;;;5000719;28;20046;-75
2023/10/28 12:38:18;;;;;;;5.72;2.38;;;11.90;99.90;;;;;;5000124;28;20104;-75
2023/10/28 12:40:44;;;;;;;8.57;2.97;;;11.90;99.90;;;;;;4999937;28;20046;-75
2023/10/28 12:43:10;;;;;;;6.75;2.70;;;12.00;99.90;;;;;;5000001;28;20045;-76